createdAt,value
2017-04-20T00:00:06.313Z,0
2017-04-20T00:00:46.767Z,0
2017-04-20T00:01:27.210Z,0
2017-04-20T00:02:07.705Z,0
2017-04-20T00:02:48.215Z,0
2017-04-20T00:03:28.687Z,0
2017-04-20T00:04:09.212Z,0
2017-04-20T00:04:49.650Z,0
2017-04-20T00:05:30.125Z,0
2017-04-20T00:06:10.587Z,0
2017-04-20T00:06:51.086Z,0
2017-04-20T00:07:31.562Z,0
2017-04-20T00:08:12.081Z,0
2017-04-20T00:08:52.546Z,0
2017-04-20T00:09:33.011Z,0
2017-04-20T00:10:13.517Z,0
2017-04-20T00:10:53.953Z,0
2017-04-20T00:11:34.451Z,0
2017-04-20T00:12:14.935Z,0
2017-04-20T00:12:55.430Z,0
2017-04-20T00:13:35.897Z,0
2017-04-20T00:14:16.338Z,0
2017-04-20T00:14:56.837Z,0
2017-04-20T00:15:37.288Z,0
2017-04-20T00:16:17.849Z,0
2017-04-20T00:16:58.355Z,0
2017-04-20T00:17:38.748Z,0
2017-04-20T00:18:19.233Z,0
2017-04-20T00:18:59.801Z,0
2017-04-20T00:19:40.286Z,0
2017-04-20T00:20:20.722Z,0
2017-04-20T00:21:01.258Z,0
2017-04-20T00:21:41.714Z,0
2017-04-20T00:22:22.200Z,0
2017-04-20T00:23:02.708Z,0
2017-04-20T00:23:43.325Z,0
2017-04-20T00:24:23.795Z,0
2017-04-20T00:25:04.311Z,0
2017-04-20T00:25:44.756Z,0
2017-04-20T00:26:25.447Z,0
2017-04-20T00:27:05.909Z,0
2017-04-20T00:27:46.438Z,0
2017-04-20T00:28:26.906Z,0
2017-04-20T00:29:08.400Z,0
2017-04-20T00:29:48.893Z,0
2017-04-20T00:30:29.420Z,0
2017-04-20T00:31:09.951Z,0
2017-04-20T00:31:50.457Z,0
2017-04-20T00:32:30.895Z,0
2017-04-20T00:33:11.379Z,0
2017-04-20T00:33:51.877Z,0
2017-04-20T00:34:32.343Z,0
2017-04-20T00:35:12.817Z,0
2017-04-20T00:35:53.435Z,0
2017-04-20T00:36:33.921Z,0
2017-04-20T00:37:14.415Z,0
2017-04-20T00:37:54.879Z,0
2017-04-20T00:38:35.298Z,0
2017-04-20T00:39:15.807Z,0
2017-04-20T00:39:56.294Z,0
2017-04-20T00:40:36.785Z,0
2017-04-20T00:41:17.321Z,0
2017-04-20T00:41:57.798Z,0
2017-04-20T00:42:38.279Z,0
2017-04-20T00:43:18.902Z,0
2017-04-20T00:43:59.356Z,0
2017-04-20T00:44:39.789Z,0
2017-04-20T00:45:20.283Z,0
2017-04-20T00:46:00.728Z,0
2017-04-20T00:46:41.221Z,0
2017-04-20T00:47:21.728Z,0
2017-04-20T00:48:02.275Z,0
2017-04-20T00:48:42.784Z,0
2017-04-20T00:49:23.256Z,0
2017-04-20T00:50:03.793Z,0
2017-04-20T00:50:44.315Z,0
2017-04-20T00:51:24.731Z,0
2017-04-20T00:52:05.236Z,0
2017-04-20T00:52:45.741Z,0
2017-04-20T00:53:26.213Z,0
2017-04-20T00:54:06.676Z,0
2017-04-20T00:54:47.304Z,0
2017-04-20T00:55:27.752Z,0
2017-04-20T00:56:08.287Z,0
2017-04-20T00:56:48.699Z,0
2017-04-20T00:57:29.156Z,0
2017-04-20T00:58:09.629Z,0
2017-04-20T00:58:50.145Z,0
2017-04-20T00:59:30.564Z,0
2017-04-20T01:00:11.113Z,0
2017-04-20T01:00:51.590Z,0
2017-04-20T01:01:32.048Z,0
2017-04-20T01:02:12.581Z,0
2017-04-20T01:02:53.019Z,0
2017-04-20T01:03:33.529Z,0
2017-04-20T01:04:13.958Z,0
2017-04-20T01:04:54.507Z,0
2017-04-20T01:05:35.028Z,0
2017-04-20T01:06:15.505Z,0
2017-04-20T01:06:55.948Z,0
2017-04-20T01:07:36.505Z,0
2017-04-20T01:08:16.975Z,0
2017-04-20T01:08:57.500Z,0
2017-04-20T01:09:37.994Z,0
2017-04-20T01:10:18.501Z,0
2017-04-20T01:10:58.982Z,0
2017-04-20T01:11:39.511Z,0
2017-04-20T01:12:19.989Z,0
2017-04-20T01:13:00.495Z,0
2017-04-20T01:13:40.944Z,0
2017-04-20T01:14:21.445Z,0
2017-04-20T01:15:01.898Z,0
2017-04-20T01:15:42.376Z,0
2017-04-20T01:16:22.900Z,0
2017-04-20T01:17:03.427Z,0
2017-04-20T01:17:43.908Z,0
2017-04-20T01:18:24.512Z,0
2017-04-20T01:19:04.982Z,0
2017-04-20T01:19:46.466Z,0
2017-04-20T01:20:26.930Z,0
2017-04-20T01:21:07.419Z,0
2017-04-20T01:21:47.908Z,0
2017-04-20T01:22:28.352Z,0
2017-04-20T01:23:08.854Z,0
2017-04-20T01:23:49.356Z,0
2017-04-20T01:24:29.870Z,0
2017-04-20T01:25:10.371Z,0
2017-04-20T01:25:50.859Z,0
2017-04-20T01:26:31.380Z,0
2017-04-20T01:27:11.866Z,0
2017-04-20T01:27:52.377Z,0
2017-04-20T01:28:32.878Z,0
2017-04-20T01:29:13.372Z,0
2017-04-20T01:29:53.831Z,0
2017-04-20T01:30:34.357Z,0
2017-04-20T01:31:14.845Z,0
2017-04-20T01:31:55.384Z,0
2017-04-20T01:32:35.926Z,0
2017-04-20T01:33:16.368Z,0
2017-04-20T01:33:56.822Z,0
2017-04-20T01:34:37.350Z,0
2017-04-20T01:35:17.816Z,0
2017-04-20T01:35:58.346Z,0
2017-04-20T01:36:38.811Z,0
2017-04-20T01:37:19.346Z,0
2017-04-20T01:37:59.787Z,0
2017-04-20T01:38:40.303Z,0
2017-04-20T01:39:20.742Z,0
2017-04-20T01:40:01.285Z,0
2017-04-20T01:40:41.807Z,0
2017-04-20T01:41:22.342Z,0
2017-04-20T01:42:02.737Z,0
2017-04-20T01:42:43.236Z,0
2017-04-20T01:43:23.794Z,0
2017-04-20T01:44:04.292Z,0
2017-04-20T01:44:44.752Z,0
2017-04-20T01:45:25.253Z,0
2017-04-20T01:46:05.723Z,0
2017-04-20T01:46:46.186Z,0
2017-04-20T01:47:26.728Z,0
2017-04-20T01:48:07.168Z,0
2017-04-20T01:48:47.692Z,0
2017-04-20T01:49:28.156Z,0
2017-04-20T01:50:08.619Z,0
2017-04-20T01:50:49.145Z,0
2017-04-20T01:51:29.622Z,0
2017-04-20T01:52:10.294Z,0
2017-04-20T01:52:50.825Z,0
2017-04-20T01:53:31.271Z,0
2017-04-20T01:54:11.748Z,0
2017-04-20T01:54:52.280Z,0
2017-04-20T01:55:32.762Z,0
2017-04-20T01:56:13.236Z,0
2017-04-20T01:56:53.730Z,0
2017-04-20T01:57:34.200Z,0
2017-04-20T01:58:14.687Z,0
2017-04-20T01:58:55.203Z,0
2017-04-20T01:59:35.638Z,0
2017-04-20T02:00:16.145Z,0
2017-04-20T02:00:56.658Z,0
2017-04-20T02:01:37.136Z,0
2017-04-20T02:02:17.582Z,0
2017-04-20T02:02:58.053Z,0
2017-04-20T02:03:38.543Z,0
2017-04-20T02:04:19.035Z,0
2017-04-20T02:04:59.547Z,0
2017-04-20T02:05:40.040Z,0
2017-04-20T02:06:20.502Z,0
2017-04-20T02:07:01.068Z,0
2017-04-20T02:07:41.552Z,0
2017-04-20T02:08:21.965Z,0
2017-04-20T02:09:02.432Z,0
2017-04-20T02:09:42.953Z,0
2017-04-20T02:10:23.394Z,0
2017-04-20T02:11:03.895Z,0
2017-04-20T02:11:44.393Z,0
2017-04-20T02:12:24.867Z,0
2017-04-20T02:13:08.052Z,0
2017-04-20T02:13:48.510Z,0
2017-04-20T02:14:28.967Z,0
2017-04-20T02:15:09.486Z,0
2017-04-20T02:15:49.945Z,0
2017-04-20T02:16:30.451Z,0
2017-04-20T02:17:10.911Z,0
2017-04-20T02:17:51.472Z,0
2017-04-20T02:18:31.934Z,0
2017-04-20T02:19:12.427Z,0
2017-04-20T02:19:52.955Z,0
2017-04-20T02:20:33.398Z,0
2017-04-20T02:21:13.952Z,0
2017-04-20T02:21:54.402Z,0
2017-04-20T02:22:34.905Z,0
2017-04-20T02:23:15.397Z,0
2017-04-20T02:23:55.875Z,0
2017-04-20T02:24:36.371Z,0
2017-04-20T02:25:16.839Z,0
2017-04-20T02:25:57.413Z,0
2017-04-20T02:26:37.851Z,0
2017-04-20T02:27:18.358Z,0
2017-04-20T02:27:58.851Z,0
2017-04-20T02:28:39.273Z,0
2017-04-20T02:29:19.848Z,0
2017-04-20T02:30:00.337Z,0
2017-04-20T02:30:40.836Z,0
2017-04-20T02:31:21.318Z,0
2017-04-20T02:32:01.844Z,0
2017-04-20T02:32:42.316Z,0
2017-04-20T02:33:22.777Z,0
2017-04-20T02:34:03.229Z,0
2017-04-20T02:34:43.717Z,0
2017-04-20T02:35:24.229Z,0
2017-04-20T02:36:04.702Z,0
2017-04-20T02:36:45.201Z,0
2017-04-20T02:37:25.705Z,0
2017-04-20T02:38:06.209Z,0
2017-04-20T02:38:46.672Z,0
2017-04-20T02:39:27.173Z,0
2017-04-20T02:40:07.649Z,0
2017-04-20T02:40:48.110Z,0
2017-04-20T02:41:28.635Z,0
2017-04-20T02:42:09.194Z,0
2017-04-20T02:42:49.721Z,0
2017-04-20T02:43:30.222Z,0
2017-04-20T02:44:10.715Z,0
2017-04-20T02:44:51.166Z,0
2017-04-20T02:45:32.583Z,0
2017-04-20T02:46:13.086Z,0
2017-04-20T02:46:53.538Z,0
2017-04-20T02:47:34.040Z,0
2017-04-20T02:48:14.503Z,0
2017-04-20T02:48:54.983Z,0
2017-04-20T02:49:35.514Z,0
2017-04-20T02:50:15.952Z,0
2017-04-20T02:50:56.419Z,0
2017-04-20T02:51:36.898Z,0
2017-04-20T02:52:17.417Z,0
2017-04-20T02:52:57.876Z,0
2017-04-20T02:53:38.326Z,0
2017-04-20T02:54:18.774Z,0
2017-04-20T02:54:59.282Z,0
2017-04-20T02:55:39.785Z,0
2017-04-20T02:56:20.247Z,0
2017-04-20T02:57:00.732Z,0
2017-04-20T02:57:41.507Z,0
2017-04-20T02:58:22.006Z,0
2017-04-20T02:59:02.477Z,0
2017-04-20T02:59:42.976Z,0
2017-04-20T03:00:23.467Z,0
2017-04-20T03:01:03.963Z,0
2017-04-20T03:01:44.420Z,0
2017-04-20T03:02:24.877Z,0
2017-04-20T03:03:05.360Z,0
2017-04-20T03:03:45.828Z,0
2017-04-20T03:04:26.364Z,0
2017-04-20T03:05:06.789Z,0
2017-04-20T03:05:47.277Z,0
2017-04-20T03:06:27.748Z,0
2017-04-20T03:07:08.260Z,0
2017-04-20T03:07:48.695Z,0
2017-04-20T03:08:29.171Z,0
2017-04-20T03:09:09.681Z,0
2017-04-20T03:09:50.317Z,0
2017-04-20T03:10:30.787Z,0
2017-04-20T03:11:11.330Z,0
2017-04-20T03:11:51.781Z,0
2017-04-20T03:12:32.266Z,0
2017-04-20T03:13:12.699Z,0
2017-04-20T03:13:53.210Z,0
2017-04-20T03:14:33.680Z,0
2017-04-20T03:15:14.141Z,0
2017-04-20T03:15:54.641Z,0
2017-04-20T03:16:35.176Z,0
2017-04-20T03:17:15.631Z,0
2017-04-20T03:17:56.151Z,0
2017-04-20T03:18:36.605Z,0
2017-04-20T03:19:17.057Z,0
2017-04-20T03:19:57.571Z,0
2017-04-20T03:20:38.011Z,0
2017-04-20T03:21:18.494Z,0
2017-04-20T03:21:59.001Z,0
2017-04-20T03:22:39.469Z,0
2017-04-20T03:23:19.988Z,0
2017-04-20T03:24:00.420Z,0
2017-04-20T03:24:40.878Z,0
2017-04-20T03:25:21.400Z,0
2017-04-20T03:26:01.879Z,0
2017-04-20T03:26:42.354Z,0
2017-04-20T03:27:22.884Z,0
2017-04-20T03:28:03.319Z,0
2017-04-20T03:28:43.792Z,0
2017-04-20T03:29:24.332Z,0
2017-04-20T03:30:04.840Z,0
2017-04-20T03:30:45.582Z,0
2017-04-20T03:31:26.042Z,0
2017-04-20T03:32:06.551Z,0
2017-04-20T03:32:47.028Z,0
2017-04-20T03:33:27.496Z,0
2017-04-20T03:34:08.000Z,0
2017-04-20T03:34:48.490Z,0
2017-04-20T03:35:28.893Z,0
2017-04-20T03:36:09.390Z,0
2017-04-20T03:36:49.912Z,4
2017-04-20T03:37:30.392Z,4
2017-04-20T03:38:10.904Z,4
2017-04-20T03:38:51.382Z,4
2017-04-20T03:39:31.869Z,0
2017-04-20T03:40:12.332Z,4
2017-04-20T03:40:52.840Z,4
2017-04-20T03:41:33.313Z,4
2017-04-20T03:42:13.829Z,4
2017-04-20T03:42:54.389Z,4
2017-04-20T03:43:34.837Z,4
2017-04-20T03:44:15.328Z,8
2017-04-20T03:44:55.797Z,8
2017-04-20T03:45:36.280Z,8
2017-04-20T03:46:16.830Z,8
2017-04-20T03:46:57.360Z,8
2017-04-20T03:47:37.830Z,8
2017-04-20T03:48:18.273Z,12
2017-04-20T03:48:58.729Z,12
2017-04-20T03:49:39.220Z,12
2017-04-20T03:50:19.722Z,16
2017-04-20T03:51:00.209Z,16
2017-04-20T03:51:40.719Z,16
2017-04-20T03:52:21.173Z,20
2017-04-20T03:53:01.668Z,20
2017-04-20T03:53:42.156Z,24
2017-04-20T03:54:22.657Z,28
2017-04-20T03:55:03.095Z,28
2017-04-20T03:55:43.614Z,32
2017-04-20T03:56:24.111Z,32
2017-04-20T03:57:04.608Z,36
2017-04-20T03:57:45.097Z,40
2017-04-20T03:58:25.757Z,48
2017-04-20T03:59:06.207Z,52
2017-04-20T03:59:46.680Z,56
2017-04-20T04:00:27.156Z,60
2017-04-20T04:01:07.608Z,64
2017-04-20T04:01:48.101Z,76
2017-04-20T04:02:28.595Z,80
2017-04-20T04:03:09.081Z,88
2017-04-20T04:03:49.601Z,92
2017-04-20T04:04:30.077Z,100
2017-04-20T04:05:10.508Z,108
2017-04-20T04:05:50.982Z,116
2017-04-20T04:06:31.521Z,124
2017-04-20T04:07:12.023Z,132
2017-04-20T04:07:52.607Z,144
2017-04-20T04:08:32.984Z,152
2017-04-20T04:09:13.521Z,164
2017-04-20T04:09:53.971Z,172
2017-04-20T04:10:34.501Z,184
2017-04-20T04:11:14.999Z,200
2017-04-20T04:11:55.403Z,212
2017-04-20T04:12:35.886Z,224
2017-04-20T04:13:16.345Z,240
2017-04-20T04:13:56.837Z,252
2017-04-20T04:14:37.390Z,264
2017-04-20T04:15:17.848Z,280
2017-04-20T04:15:58.378Z,296
2017-04-20T04:16:38.838Z,308
2017-04-20T04:17:19.379Z,324
2017-04-20T04:17:59.844Z,344
2017-04-20T04:18:40.355Z,360
2017-04-20T04:19:20.830Z,376
2017-04-20T04:20:01.309Z,400
2017-04-20T04:20:41.787Z,424
2017-04-20T04:21:22.309Z,440
2017-04-20T04:22:02.774Z,456
2017-04-20T04:22:43.309Z,472
2017-04-20T04:23:23.748Z,492
2017-04-20T04:24:04.294Z,508
2017-04-20T04:24:44.777Z,524
2017-04-20T04:25:25.249Z,548
2017-04-20T04:26:05.723Z,568
2017-04-20T04:26:46.216Z,596
2017-04-20T04:27:26.655Z,620
2017-04-20T04:28:07.113Z,644
2017-04-20T04:28:47.610Z,660
2017-04-20T04:29:28.066Z,680
2017-04-20T04:30:08.576Z,696
2017-04-20T04:30:49.054Z,712
2017-04-20T04:31:29.506Z,740
2017-04-20T04:32:10.010Z,760
2017-04-20T04:32:50.481Z,784
2017-04-20T04:33:30.944Z,812
2017-04-20T04:34:11.477Z,836
2017-04-20T04:34:51.920Z,872
2017-04-20T04:35:32.445Z,904
2017-04-20T04:36:12.906Z,928
2017-04-20T04:36:53.612Z,944
2017-04-20T04:37:34.130Z,960
2017-04-20T04:38:14.628Z,976
2017-04-20T04:38:55.108Z,988
2017-04-20T04:39:35.554Z,1004
2017-04-20T04:40:16.068Z,1024
2017-04-20T04:40:56.564Z,1044
2017-04-20T04:41:37.032Z,1056
2017-04-20T04:42:17.470Z,1076
2017-04-20T04:42:57.973Z,1096
2017-04-20T04:43:38.500Z,1108
2017-04-20T04:44:18.952Z,1128
2017-04-20T04:44:59.415Z,1144
2017-04-20T04:45:39.964Z,1160
2017-04-20T04:46:20.398Z,1176
2017-04-20T04:47:00.863Z,1192
2017-04-20T04:47:41.314Z,1212
2017-04-20T04:48:21.839Z,1232
2017-04-20T04:49:02.452Z,1248
2017-04-20T04:49:42.909Z,1268
2017-04-20T04:50:23.419Z,1288
2017-04-20T04:51:03.935Z,1304
2017-04-20T04:51:44.393Z,1324
2017-04-20T04:52:24.845Z,1340
2017-04-20T04:53:05.354Z,1356
2017-04-20T04:53:45.859Z,1376
2017-04-20T04:54:26.332Z,1396
2017-04-20T04:55:06.844Z,1416
2017-04-20T04:55:47.376Z,1436
2017-04-20T04:56:27.891Z,1460
2017-04-20T04:57:08.366Z,1484
2017-04-20T04:57:48.858Z,1508
2017-04-20T04:58:29.360Z,1532
2017-04-20T04:59:09.793Z,1552
2017-04-20T04:59:50.260Z,1568
2017-04-20T05:00:30.897Z,1588
2017-04-20T05:01:11.389Z,1600
2017-04-20T05:01:51.868Z,1616
2017-04-20T05:02:32.340Z,1624
2017-04-20T05:03:12.873Z,1640
2017-04-20T05:03:53.298Z,1652
2017-04-20T05:04:33.833Z,1668
2017-04-20T05:05:14.342Z,1684
2017-04-20T05:05:54.809Z,1700
2017-04-20T05:06:35.287Z,1724
2017-04-20T05:07:15.772Z,1748
2017-04-20T05:07:56.268Z,1772
2017-04-20T05:08:36.737Z,1800
2017-04-20T05:09:17.231Z,1824
2017-04-20T05:09:57.698Z,1836
2017-04-20T05:10:38.128Z,1848
2017-04-20T05:11:18.596Z,1852
2017-04-20T05:11:59.091Z,1860
2017-04-20T05:12:39.616Z,1884
2017-04-20T05:13:20.087Z,1912
2017-04-20T05:14:00.592Z,1948
2017-04-20T05:14:41.108Z,1988
2017-04-20T05:15:21.595Z,2036
2017-04-20T05:16:02.071Z,2084
2017-04-20T05:16:42.511Z,2128
2017-04-20T05:17:22.950Z,2180
2017-04-20T05:18:03.482Z,2232
2017-04-20T05:18:43.938Z,2268
2017-04-20T05:19:24.561Z,2308
2017-04-20T05:20:05.122Z,2384
2017-04-20T05:20:45.595Z,2504
2017-04-20T05:21:26.083Z,2644
2017-04-20T05:22:06.507Z,2688
2017-04-20T05:22:47.063Z,2652
2017-04-20T05:23:27.560Z,2624
2017-04-20T05:24:08.015Z,2596
2017-04-20T05:24:48.509Z,2616
2017-04-20T05:25:29.018Z,2628
2017-04-20T05:26:09.550Z,2612
2017-04-20T05:26:50.009Z,2540
2017-04-20T05:27:30.526Z,2428
2017-04-20T05:28:10.978Z,2372
2017-04-20T05:28:51.494Z,2340
2017-04-20T05:29:31.944Z,2328
2017-04-20T05:30:12.469Z,2384
2017-04-20T05:30:52.970Z,2432
2017-04-20T05:31:33.624Z,2412
2017-04-20T05:32:14.114Z,2400
2017-04-20T05:32:54.602Z,2432
2017-04-20T05:33:35.122Z,2388
2017-04-20T05:34:15.668Z,2360
2017-04-20T05:34:56.154Z,2340
2017-04-20T05:35:36.664Z,2356
2017-04-20T05:36:17.161Z,2424
2017-04-20T05:36:57.664Z,2440
2017-04-20T05:37:38.148Z,2484
2017-04-20T05:38:18.706Z,2616
2017-04-20T05:38:59.210Z,2668
2017-04-20T05:39:40.512Z,2832
2017-04-20T05:40:21.000Z,2972
2017-04-20T05:41:01.478Z,3124
2017-04-20T05:41:42.002Z,3288
2017-04-20T05:42:22.458Z,3304
2017-04-20T05:43:02.917Z,3184
2017-04-20T05:43:43.414Z,3012
2017-04-20T05:44:23.853Z,2984
2017-04-20T05:45:04.321Z,2996
2017-04-20T05:45:45.031Z,3128
2017-04-20T05:46:25.485Z,3136
2017-04-20T05:47:05.952Z,3136
2017-04-20T05:47:46.444Z,3120
2017-04-20T05:48:27.036Z,3112
2017-04-20T05:49:07.533Z,2968
2017-04-20T05:49:48.017Z,2844
2017-04-20T05:50:28.483Z,2812
2017-04-20T05:51:09.011Z,2836
2017-04-20T05:51:49.478Z,2900
2017-04-20T05:52:29.950Z,2980
2017-04-20T05:53:10.415Z,3056
2017-04-20T05:53:50.893Z,3148
2017-04-20T05:54:31.370Z,3200
2017-04-20T05:55:11.866Z,3212
2017-04-20T05:55:52.348Z,3148
2017-04-20T05:56:32.870Z,3028
2017-04-20T05:57:13.347Z,2880
2017-04-20T05:57:53.816Z,2792
2017-04-20T05:58:34.320Z,2776
2017-04-20T05:59:14.876Z,2768
2017-04-20T05:59:55.425Z,2904
2017-04-20T06:00:35.978Z,2840
2017-04-20T06:01:17.472Z,2816
2017-04-20T06:01:57.943Z,2860
2017-04-20T06:02:38.437Z,2908
2017-04-20T06:03:18.943Z,2952
2017-04-20T06:03:59.638Z,3112
2017-04-20T06:04:40.116Z,3120
2017-04-20T06:05:20.581Z,3168
2017-04-20T06:06:01.041Z,3248
2017-04-20T06:06:41.587Z,3244
2017-04-20T06:07:22.077Z,3356
2017-04-20T06:08:02.525Z,3544
2017-04-20T06:08:43.185Z,3684
2017-04-20T06:09:23.634Z,3964
2017-04-20T06:10:04.102Z,4072
2017-04-20T06:10:44.615Z,4052
2017-04-20T06:11:25.105Z,4128
2017-04-20T06:12:05.573Z,4356
2017-04-20T06:12:46.076Z,4472
2017-04-20T06:13:26.587Z,4428
2017-04-20T06:14:07.105Z,4592
2017-04-20T06:14:48.541Z,4620
2017-04-20T06:15:44.890Z,5016
2017-04-20T06:16:40.954Z,5200
2017-04-20T06:17:36.247Z,5176
2017-04-20T06:18:30.036Z,4776
2017-04-20T06:19:27.307Z,4524
2017-04-20T06:20:26.263Z,4252
2017-04-20T06:21:19.334Z,3900
2017-04-20T06:22:15.867Z,3644
2017-04-20T06:23:14.667Z,3560
2017-04-20T06:24:08.752Z,3620
2017-04-20T06:25:04.701Z,3880
2017-04-20T06:26:01.904Z,4132
2017-04-20T06:26:58.702Z,4476
2017-04-20T06:27:53.155Z,4700
2017-04-20T06:28:51.267Z,4508
2017-04-20T06:29:43.537Z,4556
2017-04-20T06:30:40.954Z,5032
2017-04-20T06:31:39.252Z,5856
2017-04-20T06:32:38.904Z,6312
2017-04-20T06:33:35.772Z,6276
2017-04-20T06:36:41.311Z,5788
2017-04-20T06:37:42.390Z,5564
2017-04-20T06:38:36.824Z,5468
2017-04-20T06:39:35.268Z,5712
2017-04-20T06:40:31.460Z,5636
2017-04-20T06:41:16.796Z,5588
2017-04-20T06:42:02.702Z,5380
2017-04-20T06:42:43.225Z,5116
2017-04-20T06:43:24.293Z,5072
2017-04-20T06:44:15.201Z,4588
2017-04-20T06:45:02.403Z,4308
2017-04-20T06:45:50.034Z,4016
2017-04-20T06:46:37.222Z,3864
2017-04-20T06:47:27.164Z,3752
2017-04-20T06:48:11.090Z,3660
2017-04-20T06:48:51.731Z,3516
2017-04-20T06:49:32.236Z,3444
2017-04-20T06:50:12.703Z,3464
2017-04-20T06:50:53.163Z,3380
2017-04-20T06:51:33.666Z,3416
2017-04-20T06:52:14.135Z,3448
2017-04-20T06:52:54.637Z,3588
2017-04-20T06:53:35.148Z,3564
2017-04-20T06:54:15.779Z,3840
2017-04-20T06:54:56.262Z,3992
2017-04-20T06:55:36.726Z,4188
2017-04-20T06:56:17.176Z,4464
2017-04-20T06:56:57.843Z,4780
2017-04-20T06:57:38.311Z,5240
2017-04-20T06:58:18.839Z,5672
2017-04-20T06:58:59.368Z,6080
2017-04-20T06:59:39.883Z,6664
2017-04-20T07:00:20.343Z,7236
2017-04-20T07:01:00.848Z,7704
2017-04-20T07:01:41.338Z,8112
2017-04-20T07:02:21.817Z,8056
2017-04-20T07:03:02.310Z,7960
2017-04-20T07:03:42.757Z,7936
2017-04-20T07:04:23.203Z,7968
2017-04-20T07:05:03.673Z,8004
2017-04-20T07:05:44.138Z,8108
2017-04-20T07:08:20.997Z,7560
2017-04-20T07:09:06.781Z,7736
2017-04-20T07:09:55.264Z,7740
2017-04-20T07:10:40.236Z,7940
2017-04-20T07:11:21.488Z,7824
2017-04-20T07:12:01.652Z,7516
2017-04-20T07:12:42.122Z,7888
2017-04-20T07:13:22.828Z,8012
2017-04-20T07:14:04.197Z,8252
2017-04-20T07:14:45.333Z,8252
2017-04-20T07:15:25.843Z,7932
2017-04-20T07:16:06.264Z,7776
2017-04-20T07:16:49.388Z,7636
2017-04-20T07:17:34.511Z,7436
2017-04-20T07:18:20.176Z,7540
2017-04-20T07:19:02.290Z,7736
2017-04-20T07:19:42.942Z,7720
2017-04-20T07:20:23.676Z,7924
2017-04-20T07:21:04.369Z,8004
2017-04-20T07:21:44.966Z,7824
2017-04-20T07:22:25.436Z,7156
2017-04-20T07:23:05.941Z,6844
2017-04-20T07:23:46.430Z,6480
2017-04-20T07:24:26.923Z,6140
2017-04-20T07:25:07.396Z,5820
2017-04-20T07:25:54.863Z,6144
2017-04-20T07:26:35.360Z,6364
2017-04-20T07:27:15.904Z,6500
2017-04-20T07:27:56.389Z,6636
2017-04-20T07:28:36.948Z,6828
2017-04-20T07:29:17.454Z,6760
2017-04-20T07:29:58.290Z,6224
2017-04-20T07:30:38.991Z,5380
2017-04-20T07:31:19.477Z,4744
2017-04-20T07:31:59.943Z,4520
2017-04-20T07:32:40.807Z,4868
2017-04-20T07:33:21.413Z,5516
2017-04-20T07:34:02.170Z,6416
2017-04-20T07:34:42.901Z,7500
2017-04-20T07:35:23.739Z,7604
2017-04-20T07:36:04.594Z,7456
2017-04-20T07:36:45.243Z,7276
2017-04-20T07:37:26.045Z,6596
2017-04-20T07:38:06.699Z,6480
2017-04-20T07:38:47.182Z,6348
2017-04-20T07:39:27.641Z,5776
2017-04-20T07:40:08.117Z,6312
2017-04-20T07:40:48.663Z,7204
2017-04-20T07:41:29.352Z,7836
2017-04-20T07:43:54.284Z,9388
2017-04-20T07:44:35.591Z,8560
2017-04-20T07:45:16.266Z,8224
2017-04-20T07:46:09.111Z,7720
2017-04-20T07:46:58.486Z,6876
2017-04-20T07:47:43.732Z,6700
2017-04-20T07:48:28.082Z,6472
2017-04-20T07:49:12.866Z,6040
2017-04-20T07:50:01.720Z,5532
2017-04-20T07:50:48.875Z,4928
2017-04-20T07:51:38.012Z,4748
2017-04-20T07:52:24.338Z,5096
2017-04-20T07:53:04.799Z,5536
2017-04-20T07:53:45.249Z,6124
2017-04-20T07:54:25.774Z,6956
2017-04-20T07:55:06.210Z,7640
2017-04-20T07:55:48.588Z,8248
2017-04-20T07:56:29.183Z,8520
2017-04-20T07:57:09.708Z,8840
2017-04-20T07:57:50.178Z,9216
2017-04-20T07:58:31.633Z,8508
2017-04-20T07:59:12.124Z,7728
2017-04-20T07:59:52.678Z,6764
2017-04-20T08:00:33.089Z,6276
2017-04-20T08:01:13.555Z,6036
2017-04-20T08:01:54.035Z,6096
2017-04-20T08:02:34.519Z,6096
2017-04-20T08:03:14.989Z,6208
2017-04-20T08:03:55.443Z,6496
2017-04-20T08:04:35.971Z,6964
2017-04-20T08:05:16.450Z,7364
2017-04-20T08:05:56.918Z,7784
2017-04-20T08:06:37.399Z,7924
2017-04-20T08:07:17.912Z,8040
2017-04-20T08:07:58.412Z,8156
2017-04-20T08:08:38.897Z,8000
2017-04-20T08:09:19.449Z,8072
2017-04-20T08:09:59.916Z,8176
2017-04-20T08:10:40.405Z,8224
2017-04-20T08:11:20.892Z,8512
2017-04-20T08:12:01.464Z,8304
2017-04-20T08:12:41.976Z,8032
2017-04-20T08:13:22.503Z,7692
2017-04-20T08:14:02.945Z,8352
2017-04-20T08:14:43.425Z,9420
2017-04-20T08:15:24.163Z,10924
2017-04-20T08:16:04.704Z,11760
2017-04-20T08:16:45.134Z,12024
2017-04-20T08:17:25.661Z,11552
2017-04-20T08:18:06.135Z,10772
2017-04-20T08:18:46.632Z,10316
2017-04-20T08:19:27.079Z,9588
2017-04-20T08:20:07.630Z,9596
2017-04-20T08:20:48.087Z,9644
2017-04-20T08:21:28.616Z,9892
2017-04-20T08:22:09.080Z,10120
2017-04-20T08:22:49.633Z,10372
2017-04-20T08:23:30.156Z,10104
2017-04-20T08:24:10.747Z,10148
2017-04-20T08:24:51.107Z,9832
2017-04-20T08:25:31.593Z,9784
2017-04-20T08:26:12.054Z,9304
2017-04-20T08:28:30.020Z,8932
2017-04-20T08:29:21.564Z,8704
2017-04-20T08:30:08.391Z,8696
2017-04-20T08:30:48.840Z,8752
2017-04-20T08:31:29.365Z,8896
2017-04-20T08:32:09.829Z,9112
2017-04-20T08:32:50.342Z,9396
2017-04-20T08:33:30.811Z,9668
2017-04-20T08:34:11.303Z,10020
2017-04-20T08:34:51.811Z,10340
2017-04-20T08:35:32.288Z,10620
2017-04-20T08:36:12.790Z,10972
2017-04-20T08:36:55.073Z,11136
2017-04-20T08:37:35.403Z,11508
2017-04-20T08:38:15.936Z,11740
2017-04-20T08:38:56.420Z,11952
2017-04-20T08:39:36.929Z,12108
2017-04-20T08:40:17.395Z,12300
2017-04-20T08:40:57.872Z,12420
2017-04-20T08:41:38.347Z,12708
2017-04-20T08:42:18.863Z,13036
2017-04-20T08:42:59.333Z,13388
2017-04-20T08:43:39.797Z,13864
2017-04-20T08:44:20.261Z,14292
2017-04-20T08:45:00.802Z,14620
2017-04-20T08:45:41.296Z,15064
2017-04-20T08:46:21.810Z,15324
2017-04-20T08:47:02.335Z,15416
2017-04-20T08:47:42.813Z,15428
2017-04-20T08:48:23.334Z,15480
2017-04-20T08:49:03.757Z,15544
2017-04-20T08:49:44.283Z,15480
2017-04-20T08:50:24.917Z,15160
2017-04-20T08:51:05.437Z,14792
2017-04-20T08:51:45.942Z,14484
2017-04-20T08:52:26.360Z,14080
2017-04-20T08:53:06.899Z,13552
2017-04-20T08:53:47.348Z,12960
2017-04-20T08:54:27.795Z,12696
2017-04-20T08:55:08.288Z,12880
2017-04-20T08:55:48.783Z,13268
2017-04-20T08:56:29.294Z,13416
2017-04-20T08:57:09.801Z,13592
2017-04-20T08:57:50.304Z,14184
2017-04-20T08:58:30.791Z,14596
2017-04-20T08:59:11.369Z,14640
2017-04-20T08:59:51.833Z,14676
2017-04-20T09:00:32.280Z,14632
2017-04-20T09:01:12.777Z,14584
2017-04-20T09:01:53.374Z,14540
2017-04-20T09:02:33.896Z,14540
2017-04-20T09:03:14.346Z,14588
2017-04-20T09:03:54.873Z,14612
2017-04-20T09:04:35.391Z,14696
2017-04-20T09:05:15.877Z,14828
2017-04-20T09:05:56.319Z,14816
2017-04-20T09:06:36.870Z,14812
2017-04-20T09:07:17.334Z,14848
2017-04-20T09:07:57.787Z,14836
2017-04-20T09:08:38.275Z,14884
2017-04-20T09:09:18.745Z,14932
2017-04-20T09:09:59.245Z,14832
2017-04-20T09:10:39.697Z,14696
2017-04-20T09:11:20.200Z,14560
2017-04-20T09:12:00.687Z,14452
2017-04-20T09:12:41.215Z,14448
2017-04-20T09:13:21.680Z,14468
2017-04-20T09:14:02.139Z,14456
2017-04-20T09:14:42.681Z,14472
2017-04-20T09:15:23.171Z,14456
2017-04-20T09:16:03.664Z,14404
2017-04-20T09:16:45.300Z,14328
2017-04-20T09:17:25.797Z,14180
2017-04-20T09:21:44.124Z,14024
2017-04-20T09:22:32.046Z,14168
2017-04-20T09:24:53.900Z,14556
2017-04-20T09:25:43.932Z,14592
2017-04-20T09:30:15.197Z,14232
2017-04-20T09:31:01.672Z,14280
2017-04-20T09:31:45.232Z,14144
2017-04-20T09:32:25.734Z,14084
2017-04-20T09:33:06.255Z,13988
2017-04-20T09:33:47.342Z,13740
2017-04-20T09:34:28.061Z,13472
2017-04-20T09:35:08.964Z,13412
2017-04-20T09:35:49.501Z,12968
2017-04-20T09:36:30.112Z,12780
2017-04-20T09:37:10.581Z,12796
2017-04-20T09:37:51.102Z,12668
2017-04-20T09:38:31.580Z,12500
2017-04-20T09:39:12.394Z,12260
2017-04-20T09:39:52.920Z,12280
2017-04-20T09:40:33.446Z,12608
2017-04-20T09:41:15.307Z,13012
2017-04-20T09:41:56.482Z,13172
2017-04-20T09:42:38.934Z,13272
2017-04-20T09:43:19.972Z,13428
2017-04-20T09:44:00.474Z,13856
2017-04-20T09:44:41.042Z,14444
2017-04-20T09:45:21.524Z,14800
2017-04-20T09:46:02.101Z,15100
2017-04-20T09:46:42.668Z,15296
2017-04-20T09:47:23.130Z,15264
2017-04-20T09:48:03.695Z,15344
2017-04-20T09:48:44.255Z,15508